sensor_id;sensor_type;location;lat;lon;timestamp;P1;durP1;ratioP1;P2;durP2;ratioP2
72422;SDS011;60413;55.658;37.498;2023-02-13T00:02:14;12.57;;;1.98;;
72422;SDS011;60413;55.658;37.498;2023-02-13T00:04:41;6.70;;;2.13;;
72422;SDS011;60413;55.658;37.498;2023-02-13T00:07:08;6.53;;;1.95;;
72422;SDS011;60413;55.658;37.498;2023-02-13T00:09:36;3.55;;;1.80;;
72422;SDS011;60413;55.658;37.498;2023-02-13T00:12:02;6.50;;;2.05;;
72422;SDS011;60413;55.658;37.498;2023-02-13T00:14:29;7.88;;;1.60;;
72422;SDS011;60413;55.658;37.498;2023-02-13T00:16:55;10.55;;;2.10;;
72422;SDS011;60413;55.658;37.498;2023-02-13T00:19:20;3.33;;;1.75;;
72422;SDS011;60413;55.658;37.498;2023-02-13T00:21:46;5.35;;;2.17;;
72422;SDS011;60413;55.658;37.498;2023-02-13T00:24:14;4.50;;;1.83;;
72422;SDS011;60413;55.658;37.498;2023-02-13T00:26:40;4.07;;;1.42;;
72422;SDS011;60413;55.658;37.498;2023-02-13T00:29:06;7.57;;;2.40;;
72422;SDS011;60413;55.658;37.498;2023-02-13T00:31:32;3.30;;;1.67;;
72422;SDS011;60413;55.658;37.498;2023-02-13T00:33:58;6.75;;;2.05;;
72422;SDS011;60413;55.658;37.498;2023-02-13T00:36:23;7.55;;;2.47;;
72422;SDS011;60413;55.658;37.498;2023-02-13T00:38:50;9.77;;;2.42;;
72422;SDS011;60413;55.658;37.498;2023-02-13T00:41:16;5.53;;;2.13;;
72422;SDS011;60413;55.658;37.498;2023-02-13T00:43:42;7.45;;;2.50;;
72422;SDS011;60413;55.658;37.498;2023-02-13T00:46:08;9.93;;;2.00;;
72422;SDS011;60413;55.658;37.498;2023-02-13T00:48:34;9.02;;;2.20;;
72422;SDS011;60413;55.658;37.498;2023-02-13T00:51:01;4.63;;;2.08;;
72422;SDS011;60413;55.658;37.498;2023-02-13T00:53:28;8.43;;;1.80;;
72422;SDS011;60413;55.658;37.498;2023-02-13T00:55:58;6.57;;;1.90;;
72422;SDS011;60413;55.658;37.498;2023-02-13T00:58:24;5.13;;;2.22;;
72422;SDS011;60413;55.658;37.498;2023-02-13T01:00:50;7.85;;;1.70;;
72422;SDS011;60413;55.658;37.498;2023-02-13T01:03:17;5.35;;;1.50;;
72422;SDS011;60413;55.658;37.498;2023-02-13T01:05:44;5.03;;;1.55;;
72422;SDS011;60413;55.658;37.498;2023-02-13T01:08:11;7.82;;;2.17;;
72422;SDS011;60413;55.658;37.498;2023-02-13T01:10:38;5.75;;;2.00;;
72422;SDS011;60413;55.658;37.498;2023-02-13T01:13:07;7.75;;;1.98;;
72422;SDS011;60413;55.658;37.498;2023-02-13T01:15:34;6.90;;;2.30;;
72422;SDS011;60413;55.658;37.498;2023-02-13T01:18:00;5.90;;;2.20;;
72422;SDS011;60413;55.658;37.498;2023-02-13T01:20:27;5.80;;;2.17;;
72422;SDS011;60413;55.658;37.498;2023-02-13T01:22:53;6.70;;;2.55;;
72422;SDS011;60413;55.658;37.498;2023-02-13T01:25:19;6.40;;;2.38;;
72422;SDS011;60413;55.658;37.498;2023-02-13T01:27:45;6.07;;;1.95;;
72422;SDS011;60413;55.658;37.498;2023-02-13T01:30:12;6.10;;;2.10;;
72422;SDS011;60413;55.658;37.498;2023-02-13T01:32:40;8.05;;;2.80;;
72422;SDS011;60413;55.658;37.498;2023-02-13T01:35:08;10.85;;;2.50;;
72422;SDS011;60413;55.658;37.498;2023-02-13T01:37:36;10.50;;;2.45;;
72422;SDS011;60413;55.658;37.498;2023-02-13T01:40:03;5.72;;;2.17;;
72422;SDS011;60413;55.658;37.498;2023-02-13T01:42:30;3.65;;;2.05;;
72422;SDS011;60413;55.658;37.498;2023-02-13T01:44:58;5.65;;;2.10;;
72422;SDS011;60413;55.658;37.498;2023-02-13T01:47:39;10.18;;;2.65;;
72422;SDS011;60413;55.658;37.498;2023-02-13T01:53:17;6.75;;;2.85;;
72422;SDS011;60413;55.658;37.498;2023-02-13T01:55:55;12.13;;;5.22;;
72422;SDS011;60413;55.658;37.498;2023-02-13T01:58:31;6.22;;;2.50;;
72422;SDS011;60413;55.658;37.498;2023-02-13T02:01:00;8.00;;;2.53;;
72422;SDS011;60413;55.658;37.498;2023-02-13T02:03:30;5.53;;;2.30;;
72422;SDS011;60413;55.658;37.498;2023-02-13T02:06:06;10.30;;;2.30;;
72422;SDS011;60413;55.658;37.498;2023-02-13T02:08:37;6.03;;;2.60;;
72422;SDS011;60413;55.658;37.498;2023-02-13T02:11:05;8.60;;;2.47;;
72422;SDS011;60413;55.658;37.498;2023-02-13T02:13:37;5.22;;;2.05;;
72422;SDS011;60413;55.658;37.498;2023-02-13T02:16:06;6.57;;;2.28;;
72422;SDS011;60413;55.658;37.498;2023-02-13T02:18:32;6.90;;;2.35;;
72422;SDS011;60413;55.658;37.498;2023-02-13T02:32:21;7.40;;;1.98;;
72422;SDS011;60413;55.658;37.498;2023-02-13T02:48:28;4.40;;;1.73;;
72422;SDS011;60413;55.658;37.498;2023-02-13T02:56:50;5.32;;;1.95;;
72422;SDS011;60413;55.658;37.498;2023-02-13T02:59:24;6.82;;;2.08;;
72422;SDS011;60413;55.658;37.498;2023-02-13T03:02:11;4.28;;;1.98;;
72422;SDS011;60413;55.658;37.498;2023-02-13T03:04:57;4.95;;;1.77;;
72422;SDS011;60413;55.658;37.498;2023-02-13T03:07:44;6.30;;;1.60;;
72422;SDS011;60413;55.658;37.498;2023-02-13T03:10:11;6.20;;;1.83;;
72422;SDS011;60413;55.658;37.498;2023-02-13T03:13:14;7.28;;;2.20;;
72422;SDS011;60413;55.658;37.498;2023-02-13T03:15:53;13.77;;;2.20;;
72422;SDS011;60413;55.658;37.498;2023-02-13T03:18:59;10.43;;;2.00;;
72422;SDS011;60413;55.658;37.498;2023-02-13T03:21:47;5.05;;;1.70;;
72422;SDS011;60413;55.658;37.498;2023-02-13T03:24:45;3.95;;;1.70;;
72422;SDS011;60413;55.658;37.498;2023-02-13T03:33:11;5.05;;;1.90;;
72422;SDS011;60413;55.658;37.498;2023-02-13T03:35:47;5.72;;;1.60;;
72422;SDS011;60413;55.658;37.498;2023-02-13T03:38:45;2.58;;;1.60;;
72422;SDS011;60413;55.658;37.498;2023-02-13T03:44:22;6.20;;;2.30;;
72422;SDS011;60413;55.658;37.498;2023-02-13T03:47:33;5.38;;;1.83;;
72422;SDS011;60413;55.658;37.498;2023-02-13T03:50:00;6.88;;;2.30;;
72422;SDS011;60413;55.658;37.498;2023-02-13T03:52:33;3.50;;;1.70;;
72422;SDS011;60413;55.658;37.498;2023-02-13T03:58:23;7.78;;;2.13;;
72422;SDS011;60413;55.658;37.498;2023-02-13T04:01:16;3.72;;;1.77;;
72422;SDS011;60413;55.658;37.498;2023-02-13T04:03:55;10.75;;;3.65;;
72422;SDS011;60413;55.658;37.498;2023-02-13T04:06:23;11.57;;;4.22;;
72422;SDS011;60413;55.658;37.498;2023-02-13T04:08:54;5.63;;;2.50;;
72422;SDS011;60413;55.658;37.498;2023-02-13T04:11:21;4.70;;;1.75;;
72422;SDS011;60413;55.658;37.498;2023-02-13T04:13:56;6.30;;;2.17;;
72422;SDS011;60413;55.658;37.498;2023-02-13T04:16:26;7.82;;;2.45;;
72422;SDS011;60413;55.658;37.498;2023-02-13T04:18:56;5.47;;;2.15;;
72422;SDS011;60413;55.658;37.498;2023-02-13T04:21:23;7.18;;;2.10;;
72422;SDS011;60413;55.658;37.498;2023-02-13T04:23:49;6.78;;;2.22;;
72422;SDS011;60413;55.658;37.498;2023-02-13T04:26:16;8.75;;;2.75;;
72422;SDS011;60413;55.658;37.498;2023-02-13T04:28:45;5.00;;;2.05;;
72422;SDS011;60413;55.658;37.498;2023-02-13T04:31:11;5.65;;;1.85;;
72422;SDS011;60413;55.658;37.498;2023-02-13T04:33:36;8.38;;;2.80;;
72422;SDS011;60413;55.658;37.498;2023-02-13T04:36:02;7.68;;;2.72;;
72422;SDS011;60413;55.658;37.498;2023-02-13T04:38:29;7.78;;;2.83;;
72422;SDS011;60413;55.658;37.498;2023-02-13T04:40:55;6.32;;;1.70;;
72422;SDS011;60413;55.658;37.498;2023-02-13T04:43:21;7.68;;;2.15;;
72422;SDS011;60413;55.658;37.498;2023-02-13T04:45:47;4.70;;;1.67;;
72422;SDS011;60413;55.658;37.498;2023-02-13T04:48:14;5.05;;;1.38;;
72422;SDS011;60413;55.658;37.498;2023-02-13T04:50:40;5.07;;;1.30;;
72422;SDS011;60413;55.658;37.498;2023-02-13T04:53:06;7.88;;;1.80;;
72422;SDS011;60413;55.658;37.498;2023-02-13T04:55:32;3.70;;;1.70;;
72422;SDS011;60413;55.658;37.498;2023-02-13T04:57:58;4.82;;;2.22;;
72422;SDS011;60413;55.658;37.498;2023-02-13T05:00:25;5.97;;;1.50;;
72422;SDS011;60413;55.658;37.498;2023-02-13T05:02:52;5.30;;;1.75;;
72422;SDS011;60413;55.658;37.498;2023-02-13T05:05:20;4.32;;;1.45;;
72422;SDS011;60413;55.658;37.498;2023-02-13T05:07:46;7.15;;;2.00;;
72422;SDS011;60413;55.658;37.498;2023-02-13T05:10:12;9.57;;;2.00;;
72422;SDS011;60413;55.658;37.498;2023-02-13T05:12:39;6.38;;;2.08;;
72422;SDS011;60413;55.658;37.498;2023-02-13T05:15:05;7.28;;;2.15;;
72422;SDS011;60413;55.658;37.498;2023-02-13T05:17:31;5.00;;;1.75;;
72422;SDS011;60413;55.658;37.498;2023-02-13T05:19:57;2.75;;;1.60;;
72422;SDS011;60413;55.658;37.498;2023-02-13T05:22:24;4.90;;;1.40;;
72422;SDS011;60413;55.658;37.498;2023-02-13T05:25:08;4.57;;;1.95;;
72422;SDS011;60413;55.658;37.498;2023-02-13T05:27:34;4.53;;;1.95;;
72422;SDS011;60413;55.658;37.498;2023-02-13T05:30:00;3.53;;;1.67;;
72422;SDS011;60413;55.658;37.498;2023-02-13T05:32:26;3.55;;;1.23;;
72422;SDS011;60413;55.658;37.498;2023-02-13T05:34:52;4.47;;;1.58;;
72422;SDS011;60413;55.658;37.498;2023-02-13T05:37:18;8.38;;;1.83;;
72422;SDS011;60413;55.658;37.498;2023-02-13T05:39:44;3.15;;;1.50;;
72422;SDS011;60413;55.658;37.498;2023-02-13T05:42:09;2.38;;;1.30;;
72422;SDS011;60413;55.658;37.498;2023-02-13T05:44:35;6.57;;;1.90;;
72422;SDS011;60413;55.658;37.498;2023-02-13T05:47:01;6.28;;;1.67;;
72422;SDS011;60413;55.658;37.498;2023-02-13T05:49:27;3.58;;;1.50;;
72422;SDS011;60413;55.658;37.498;2023-02-13T05:51:52;4.18;;;1.50;;
72422;SDS011;60413;55.658;37.498;2023-02-13T05:54:18;3.60;;;1.20;;
72422;SDS011;60413;55.658;37.498;2023-02-13T05:56:44;6.30;;;1.88;;
72422;SDS011;60413;55.658;37.498;2023-02-13T05:59:11;5.72;;;2.10;;
72422;SDS011;60413;55.658;37.498;2023-02-13T06:01:37;6.22;;;1.90;;
72422;SDS011;60413;55.658;37.498;2023-02-13T06:04:03;4.53;;;1.70;;
72422;SDS011;60413;55.658;37.498;2023-02-13T06:06:29;5.13;;;1.60;;
72422;SDS011;60413;55.658;37.498;2023-02-13T06:08:55;7.57;;;1.88;;
72422;SDS011;60413;55.658;37.498;2023-02-13T06:11:20;3.08;;;1.65;;
72422;SDS011;60413;55.658;37.498;2023-02-13T06:13:46;6.28;;;1.80;;
72422;SDS011;60413;55.658;37.498;2023-02-13T06:16:12;2.47;;;1.35;;
72422;SDS011;60413;55.658;37.498;2023-02-13T06:18:38;7.72;;;1.90;;
72422;SDS011;60413;55.658;37.498;2023-02-13T06:21:05;3.60;;;2.13;;
72422;SDS011;60413;55.658;37.498;2023-02-13T06:23:34;5.63;;;2.10;;
72422;SDS011;60413;55.658;37.498;2023-02-13T06:26:01;3.85;;;1.83;;
72422;SDS011;60413;55.658;37.498;2023-02-13T06:28:28;5.78;;;1.67;;
72422;SDS011;60413;55.658;37.498;2023-02-13T06:30:54;4.65;;;1.90;;
72422;SDS011;60413;55.658;37.498;2023-02-13T06:33:24;7.07;;;2.15;;
72422;SDS011;60413;55.658;37.498;2023-02-13T06:35:49;5.68;;;1.90;;
72422;SDS011;60413;55.658;37.498;2023-02-13T06:38:16;4.57;;;1.67;;
72422;SDS011;60413;55.658;37.498;2023-02-13T06:40:44;4.30;;;1.75;;
72422;SDS011;60413;55.658;37.498;2023-02-13T06:43:11;5.22;;;2.08;;
72422;SDS011;60413;55.658;37.498;2023-02-13T06:45:37;4.15;;;1.90;;
72422;SDS011;60413;55.658;37.498;2023-02-13T06:48:02;4.88;;;1.83;;
72422;SDS011;60413;55.658;37.498;2023-02-13T06:50:28;6.07;;;1.80;;
72422;SDS011;60413;55.658;37.498;2023-02-13T06:52:54;4.32;;;1.73;;
72422;SDS011;60413;55.658;37.498;2023-02-13T06:55:20;4.10;;;1.50;;
72422;SDS011;60413;55.658;37.498;2023-02-13T06:57:46;5.18;;;1.70;;
72422;SDS011;60413;55.658;37.498;2023-02-13T07:00:13;6.63;;;1.92;;
72422;SDS011;60413;55.658;37.498;2023-02-13T07:02:40;7.85;;;2.30;;
72422;SDS011;60413;55.658;37.498;2023-02-13T07:05:08;7.72;;;2.20;;
72422;SDS011;60413;55.658;37.498;2023-02-13T07:07:36;2.97;;;1.63;;
72422;SDS011;60413;55.658;37.498;2023-02-13T07:10:05;2.97;;;1.80;;
72422;SDS011;60413;55.658;37.498;2023-02-13T07:12:33;6.15;;;2.58;;
72422;SDS011;60413;55.658;37.498;2023-02-13T07:15:01;7.68;;;2.67;;
72422;SDS011;60413;55.658;37.498;2023-02-13T07:17:28;3.85;;;2.10;;
72422;SDS011;60413;55.658;37.498;2023-02-13T07:19:54;6.18;;;2.50;;
72422;SDS011;60413;55.658;37.498;2023-02-13T07:22:22;7.05;;;2.80;;
72422;SDS011;60413;55.658;37.498;2023-02-13T07:24:48;8.13;;;2.58;;
72422;SDS011;60413;55.658;37.498;2023-02-13T07:27:14;5.18;;;2.22;;
72422;SDS011;60413;55.658;37.498;2023-02-13T07:29:40;9.05;;;2.63;;
72422;SDS011;60413;55.658;37.498;2023-02-13T07:32:05;7.28;;;2.35;;
72422;SDS011;60413;55.658;37.498;2023-02-13T07:34:31;5.97;;;2.50;;
72422;SDS011;60413;55.658;37.498;2023-02-13T07:36:57;6.53;;;2.42;;
72422;SDS011;60413;55.658;37.498;2023-02-13T07:39:23;9.18;;;2.55;;
72422;SDS011;60413;55.658;37.498;2023-02-13T07:41:50;4.60;;;2.05;;
72422;SDS011;60413;55.658;37.498;2023-02-13T07:44:16;6.80;;;2.22;;
72422;SDS011;60413;55.658;37.498;2023-02-13T07:46:42;8.80;;;2.63;;
72422;SDS011;60413;55.658;37.498;2023-02-13T07:49:08;6.05;;;2.38;;
72422;SDS011;60413;55.658;37.498;2023-02-13T07:51:34;8.27;;;2.78;;
72422;SDS011;60413;55.658;37.498;2023-02-13T07:54:00;5.75;;;2.33;;
72422;SDS011;60413;55.658;37.498;2023-02-13T07:56:27;8.32;;;2.53;;
72422;SDS011;60413;55.658;37.498;2023-02-13T07:58:53;5.63;;;2.38;;
72422;SDS011;60413;55.658;37.498;2023-02-13T08:01:22;6.60;;;2.00;;
72422;SDS011;60413;55.658;37.498;2023-02-13T08:03:49;6.65;;;2.67;;
72422;SDS011;60413;55.658;37.498;2023-02-13T08:06:16;4.28;;;2.05;;
72422;SDS011;60413;55.658;37.498;2023-02-13T08:08:43;8.18;;;2.78;;
72422;SDS011;60413;55.658;37.498;2023-02-13T08:11:16;6.45;;;2.50;;
72422;SDS011;60413;55.658;37.498;2023-02-13T08:14:08;6.57;;;2.28;;
72422;SDS011;60413;55.658;37.498;2023-02-13T08:16:34;5.07;;;2.47;;
72422;SDS011;60413;55.658;37.498;2023-02-13T08:19:00;10.52;;;2.72;;
72422;SDS011;60413;55.658;37.498;2023-02-13T08:21:29;7.55;;;2.70;;
72422;SDS011;60413;55.658;37.498;2023-02-13T08:23:55;8.02;;;2.70;;
72422;SDS011;60413;55.658;37.498;2023-02-13T08:26:21;5.53;;;2.78;;
72422;SDS011;60413;55.658;37.498;2023-02-13T08:28:47;5.80;;;2.15;;
72422;SDS011;60413;55.658;37.498;2023-02-13T08:31:13;6.72;;;2.63;;
72422;SDS011;60413;55.658;37.498;2023-02-13T08:33:39;6.68;;;2.53;;
72422;SDS011;60413;55.658;37.498;2023-02-13T08:36:05;9.68;;;3.00;;
72422;SDS011;60413;55.658;37.498;2023-02-13T08:38:32;8.40;;;2.22;;
72422;SDS011;60413;55.658;37.498;2023-02-13T08:40:58;8.48;;;3.30;;
72422;SDS011;60413;55.658;37.498;2023-02-13T08:43:24;9.55;;;3.10;;
72422;SDS011;60413;55.658;37.498;2023-02-13T08:45:50;5.97;;;2.30;;
72422;SDS011;60413;55.658;37.498;2023-02-13T08:48:16;11.48;;;3.10;;
72422;SDS011;60413;55.658;37.498;2023-02-13T08:50:42;7.18;;;2.38;;
72422;SDS011;60413;55.658;37.498;2023-02-13T08:53:08;8.10;;;2.90;;
72422;SDS011;60413;55.658;37.498;2023-02-13T08:55:34;6.28;;;3.10;;
72422;SDS011;60413;55.658;37.498;2023-02-13T08:58:03;8.38;;;3.00;;
72422;SDS011;60413;55.658;37.498;2023-02-13T09:00:30;7.15;;;2.63;;
72422;SDS011;60413;55.658;37.498;2023-02-13T09:03:03;8.63;;;2.78;;
72422;SDS011;60413;55.658;37.498;2023-02-13T09:05:29;14.35;;;3.13;;
72422;SDS011;60413;55.658;37.498;2023-02-13T09:08:00;4.03;;;1.85;;
72422;SDS011;60413;55.658;37.498;2023-02-13T09:10:30;8.27;;;2.50;;
72422;SDS011;60413;55.658;37.498;2023-02-13T09:12:57;7.18;;;2.22;;
72422;SDS011;60413;55.658;37.498;2023-02-13T09:15:23;9.45;;;2.92;;
72422;SDS011;60413;55.658;37.498;2023-02-13T09:17:49;15.70;;;5.22;;
72422;SDS011;60413;55.658;37.498;2023-02-13T09:20:15;9.38;;;3.33;;
72422;SDS011;60413;55.658;37.498;2023-02-13T09:22:41;6.07;;;2.80;;
72422;SDS011;60413;55.658;37.498;2023-02-13T09:25:07;12.98;;;3.47;;
72422;SDS011;60413;55.658;37.498;2023-02-13T09:27:34;6.35;;;2.95;;
72422;SDS011;60413;55.658;37.498;2023-02-13T09:30:01;8.23;;;3.05;;
72422;SDS011;60413;55.658;37.498;2023-02-13T09:32:27;7.20;;;3.22;;
72422;SDS011;60413;55.658;37.498;2023-02-13T09:34:53;9.50;;;3.83;;
72422;SDS011;60413;55.658;37.498;2023-02-13T09:37:19;14.15;;;3.13;;
72422;SDS011;60413;55.658;37.498;2023-02-13T09:39:47;8.15;;;3.28;;
72422;SDS011;60413;55.658;37.498;2023-02-13T09:42:20;6.03;;;2.97;;
72422;SDS011;60413;55.658;37.498;2023-02-13T09:44:52;7.35;;;3.30;;
72422;SDS011;60413;55.658;37.498;2023-02-13T09:49:53;9.30;;;4.10;;
72422;SDS011;60413;55.658;37.498;2023-02-13T09:52:33;8.93;;;3.17;;
72422;SDS011;60413;55.658;37.498;2023-02-13T09:55:02;7.03;;;3.40;;
72422;SDS011;60413;55.658;37.498;2023-02-13T09:57:40;6.80;;;3.00;;
72422;SDS011;60413;55.658;37.498;2023-02-13T10:00:12;8.30;;;3.10;;
72422;SDS011;60413;55.658;37.498;2023-02-13T10:11:10;11.05;;;3.72;;
72422;SDS011;60413;55.658;37.498;2023-02-13T10:22:15;10.40;;;4.10;;
72422;SDS011;60413;55.658;37.498;2023-02-13T10:27:22;10.80;;;3.72;;
72422;SDS011;60413;55.658;37.498;2023-02-13T10:30:05;9.00;;;3.63;;
72422;SDS011;60413;55.658;37.498;2023-02-13T10:33:01;7.75;;;3.42;;
72422;SDS011;60413;55.658;37.498;2023-02-13T10:35:44;9.10;;;4.47;;
72422;SDS011;60413;55.658;37.498;2023-02-13T10:38:24;10.48;;;4.00;;
72422;SDS011;60413;55.658;37.498;2023-02-13T10:41:02;7.60;;;3.15;;
72422;SDS011;60413;55.658;37.498;2023-02-13T10:46:23;6.57;;;3.20;;
72422;SDS011;60413;55.658;37.498;2023-02-13T10:49:14;10.95;;;4.03;;
72422;SDS011;60413;55.658;37.498;2023-02-13T11:00:17;17.10;;;5.57;;
72422;SDS011;60413;55.658;37.498;2023-02-13T11:02:55;9.27;;;3.70;;
72422;SDS011;60413;55.658;37.498;2023-02-13T11:05:23;13.93;;;5.35;;
72422;SDS011;60413;55.658;37.498;2023-02-13T11:07:54;10.30;;;4.95;;
72422;SDS011;60413;55.658;37.498;2023-02-13T11:10:22;10.93;;;3.83;;
72422;SDS011;60413;55.658;37.498;2023-02-13T11:12:50;18.45;;;5.72;;
72422;SDS011;60413;55.658;37.498;2023-02-13T11:17:52;10.40;;;3.73;;
72422;SDS011;60413;55.658;37.498;2023-02-13T11:20:34;13.18;;;4.13;;
72422;SDS011;60413;55.658;37.498;2023-02-13T11:23:16;9.60;;;3.30;;
72422;SDS011;60413;55.658;37.498;2023-02-13T11:25:56;9.45;;;3.75;;
72422;SDS011;60413;55.658;37.498;2023-02-13T11:28:26;11.25;;;3.20;;
72422;SDS011;60413;55.658;37.498;2023-02-13T11:31:12;10.98;;;4.55;;
72422;SDS011;60413;55.658;37.498;2023-02-13T11:33:44;6.70;;;2.70;;
72422;SDS011;60413;55.658;37.498;2023-02-13T11:36:14;9.38;;;3.42;;
72422;SDS011;60413;55.658;37.498;2023-02-13T11:38:55;27.38;;;8.93;;
72422;SDS011;60413;55.658;37.498;2023-02-13T11:41:24;10.38;;;3.60;;
72422;SDS011;60413;55.658;37.498;2023-02-13T11:44:00;9.68;;;3.45;;
72422;SDS011;60413;55.658;37.498;2023-02-13T11:46:29;11.68;;;3.30;;
72422;SDS011;60413;55.658;37.498;2023-02-13T11:49:14;7.97;;;3.15;;
72422;SDS011;60413;55.658;37.498;2023-02-13T11:51:50;6.03;;;2.65;;
72422;SDS011;60413;55.658;37.498;2023-02-13T11:59:49;13.85;;;3.50;;
72422;SDS011;60413;55.658;37.498;2023-02-13T12:02:18;9.23;;;3.00;;
72422;SDS011;60413;55.658;37.498;2023-02-13T12:04:45;10.93;;;4.22;;
72422;SDS011;60413;55.658;37.498;2023-02-13T12:07:22;9.32;;;3.50;;
72422;SDS011;60413;55.658;37.498;2023-02-13T12:13:01;6.63;;;2.55;;
72422;SDS011;60413;55.658;37.498;2023-02-13T12:15:38;10.48;;;3.08;;
72422;SDS011;60413;55.658;37.498;2023-02-13T12:32:18;10.68;;;3.15;;
72422;SDS011;60413;55.658;37.498;2023-02-13T12:35:13;5.55;;;2.50;;
72422;SDS011;60413;55.658;37.498;2023-02-13T12:37:36;5.82;;;2.28;;
72422;SDS011;60413;55.658;37.498;2023-02-13T13:05:31;11.60;;;3.42;;
72422;SDS011;60413;55.658;37.498;2023-02-13T13:08:15;7.30;;;2.75;;
72422;SDS011;60413;55.658;37.498;2023-02-13T13:13:40;7.82;;;3.80;;
72422;SDS011;60413;55.658;37.498;2023-02-13T13:16:21;7.82;;;1.98;;
72422;SDS011;60413;55.658;37.498;2023-02-13T13:27:01;8.73;;;1.95;;
72422;SDS011;60413;55.658;37.498;2023-02-13T13:29:40;12.18;;;2.20;;
72422;SDS011;60413;55.658;37.498;2023-02-13T13:32:10;7.57;;;2.22;;
72422;SDS011;60413;55.658;37.498;2023-02-13T13:34:41;21.52;;;2.65;;
72422;SDS011;60413;55.658;37.498;2023-02-13T13:37:13;6.55;;;2.75;;
72422;SDS011;60413;55.658;37.498;2023-02-13T13:42:50;7.72;;;2.03;;
72422;SDS011;60413;55.658;37.498;2023-02-13T13:50:40;7.18;;;2.60;;
72422;SDS011;60413;55.658;37.498;2023-02-13T13:53:18;7.22;;;2.53;;
72422;SDS011;60413;55.658;37.498;2023-02-13T13:58:32;8.75;;;4.03;;
72422;SDS011;60413;55.658;37.498;2023-02-13T14:03:51;14.40;;;5.45;;
72422;SDS011;60413;55.658;37.498;2023-02-13T14:06:26;7.78;;;3.30;;
72422;SDS011;60413;55.658;37.498;2023-02-13T14:09:06;9.15;;;2.58;;
72422;SDS011;60413;55.658;37.498;2023-02-13T14:11:52;17.80;;;3.83;;
72422;SDS011;60413;55.658;37.498;2023-02-13T14:16:59;4.55;;;2.42;;
72422;SDS011;60413;55.658;37.498;2023-02-13T14:19:31;9.93;;;3.05;;
72422;SDS011;60413;55.658;37.498;2023-02-13T14:24:50;8.57;;;2.67;;
72422;SDS011;60413;55.658;37.498;2023-02-13T14:27:27;8.63;;;3.40;;
72422;SDS011;60413;55.658;37.498;2023-02-13T14:29:55;7.72;;;3.45;;
72422;SDS011;60413;55.658;37.498;2023-02-13T14:32:28;6.43;;;2.70;;
72422;SDS011;60413;55.658;37.498;2023-02-13T14:35:21;8.75;;;2.80;;
72422;SDS011;60413;55.658;37.498;2023-02-13T14:37:55;8.23;;;2.97;;
72422;SDS011;60413;55.658;37.498;2023-02-13T14:43:18;16.25;;;3.55;;
72422;SDS011;60413;55.658;37.498;2023-02-13T14:45:55;6.70;;;2.70;;
72422;SDS011;60413;55.658;37.498;2023-02-13T14:54:04;7.13;;;2.83;;
72422;SDS011;60413;55.658;37.498;2023-02-13T14:56:40;10.10;;;3.15;;
72422;SDS011;60413;55.658;37.498;2023-02-13T14:59:19;10.35;;;3.17;;
72422;SDS011;60413;55.658;37.498;2023-02-13T15:01:50;9.07;;;3.88;;
72422;SDS011;60413;55.658;37.498;2023-02-13T15:04:34;16.08;;;4.50;;
72422;SDS011;60413;55.658;37.498;2023-02-13T15:07:18;6.18;;;2.85;;
72422;SDS011;60413;55.658;37.498;2023-02-13T15:09:49;18.73;;;4.60;;
72422;SDS011;60413;55.658;37.498;2023-02-13T15:12:24;13.07;;;4.72;;
72422;SDS011;60413;55.658;37.498;2023-02-13T15:15:01;11.70;;;3.83;;
72422;SDS011;60413;55.658;37.498;2023-02-13T15:17:46;15.32;;;4.60;;
72422;SDS011;60413;55.658;37.498;2023-02-13T15:22:40;8.18;;;2.85;;
72422;SDS011;60413;55.658;37.498;2023-02-13T15:25:21;6.63;;;3.15;;
72422;SDS011;60413;55.658;37.498;2023-02-13T15:27:51;10.52;;;3.25;;
72422;SDS011;60413;55.658;37.498;2023-02-13T15:32:57;12.45;;;3.38;;
72422;SDS011;60413;55.658;37.498;2023-02-13T15:35:27;13.75;;;3.67;;
72422;SDS011;60413;55.658;37.498;2023-02-13T15:37:56;15.52;;;4.13;;
72422;SDS011;60413;55.658;37.498;2023-02-13T15:42:50;13.07;;;4.70;;
72422;SDS011;60413;55.658;37.498;2023-02-13T15:45:16;9.82;;;3.78;;
72422;SDS011;60413;55.658;37.498;2023-02-13T15:47:45;9.88;;;4.22;;
72422;SDS011;60413;55.658;37.498;2023-02-13T15:52:59;10.32;;;4.60;;
72422;SDS011;60413;55.658;37.498;2023-02-13T15:55:28;10.93;;;4.90;;
72422;SDS011;60413;55.658;37.498;2023-02-13T15:57:56;6.43;;;3.15;;
72422;SDS011;60413;55.658;37.498;2023-02-13T16:00:24;13.63;;;3.92;;
72422;SDS011;60413;55.658;37.498;2023-02-13T16:02:52;7.60;;;3.63;;
72422;SDS011;60413;55.658;37.498;2023-02-13T16:05:20;8.80;;;4.35;;
72422;SDS011;60413;55.658;37.498;2023-02-13T16:10:34;13.40;;;3.95;;
72422;SDS011;60413;55.658;37.498;2023-02-13T16:13:04;15.32;;;4.40;;
72422;SDS011;60413;55.658;37.498;2023-02-13T16:15:33;7.78;;;3.55;;
72422;SDS011;60413;55.658;37.498;2023-02-13T16:18:01;7.03;;;4.10;;
72422;SDS011;60413;55.658;37.498;2023-02-13T16:20:28;8.13;;;4.03;;
72422;SDS011;60413;55.658;37.498;2023-02-13T16:23:01;11.43;;;4.40;;
72422;SDS011;60413;55.658;37.498;2023-02-13T16:25:35;11.60;;;3.90;;
72422;SDS011;60413;55.658;37.498;2023-02-13T16:30:34;16.50;;;5.47;;
72422;SDS011;60413;55.658;37.498;2023-02-13T16:33:11;6.60;;;3.17;;
72422;SDS011;60413;55.658;37.498;2023-02-13T16:35:52;11.20;;;4.68;;
72422;SDS011;60413;55.658;37.498;2023-02-13T16:38:48;14.05;;;5.57;;
72422;SDS011;60413;55.658;37.498;2023-02-13T16:46:34;7.47;;;3.47;;
72422;SDS011;60413;55.658;37.498;2023-02-13T16:54:04;7.40;;;3.63;;
72422;SDS011;60413;55.658;37.498;2023-02-13T16:59:29;9.35;;;4.50;;
72422;SDS011;60413;55.658;37.498;2023-02-13T17:04:53;11.23;;;3.85;;
72422;SDS011;60413;55.658;37.498;2023-02-13T17:07:30;9.27;;;4.00;;
72422;SDS011;60413;55.658;37.498;2023-02-13T17:10:03;19.08;;;4.25;;
72422;SDS011;60413;55.658;37.498;2023-02-13T17:12:33;10.88;;;4.13;;
72422;SDS011;60413;55.658;37.498;2023-02-13T17:15:02;9.50;;;4.63;;
72422;SDS011;60413;55.658;37.498;2023-02-13T17:17:30;9.80;;;4.32;;
72422;SDS011;60413;55.658;37.498;2023-02-13T17:19:57;9.02;;;4.65;;
72422;SDS011;60413;55.658;37.498;2023-02-13T17:22:30;8.60;;;5.00;;
72422;SDS011;60413;55.658;37.498;2023-02-13T17:25:04;9.00;;;4.32;;
72422;SDS011;60413;55.658;37.498;2023-02-13T17:27:32;10.15;;;4.75;;
72422;SDS011;60413;55.658;37.498;2023-02-13T17:29:59;12.95;;;5.13;;
72422;SDS011;60413;55.658;37.498;2023-02-13T17:32:25;11.95;;;4.93;;
72422;SDS011;60413;55.658;37.498;2023-02-13T17:35:00;12.73;;;5.32;;
72422;SDS011;60413;55.658;37.498;2023-02-13T17:37:26;10.60;;;4.88;;
72422;SDS011;60413;55.658;37.498;2023-02-13T17:39:53;9.68;;;4.78;;
72422;SDS011;60413;55.658;37.498;2023-02-13T17:42:55;10.20;;;5.20;;
72422;SDS011;60413;55.658;37.498;2023-02-13T17:45:27;12.90;;;4.75;;
72422;SDS011;60413;55.658;37.498;2023-02-13T17:47:59;10.50;;;4.50;;
72422;SDS011;60413;55.658;37.498;2023-02-13T17:57:20;9.38;;;4.80;;
72422;SDS011;60413;55.658;37.498;2023-02-13T17:59:46;12.38;;;5.63;;
72422;SDS011;60413;55.658;37.498;2023-02-13T18:02:33;11.80;;;5.20;;
72422;SDS011;60413;55.658;37.498;2023-02-13T18:05:03;14.38;;;6.75;;
72422;SDS011;60413;55.658;37.498;2023-02-13T18:07:49;12.50;;;5.60;;
72422;SDS011;60413;55.658;37.498;2023-02-13T18:10:29;10.88;;;5.60;;
72422;SDS011;60413;55.658;37.498;2023-02-13T18:13:06;10.40;;;5.07;;
72422;SDS011;60413;55.658;37.498;2023-02-13T18:15:50;12.07;;;5.30;;
72422;SDS011;60413;55.658;37.498;2023-02-13T18:18:39;10.20;;;5.35;;
72422;SDS011;60413;55.658;37.498;2023-02-13T18:21:23;10.77;;;4.93;;